createdAt,value
2022-10-17T00:01:40.402Z,2.90
2022-10-17T00:04:11.070Z,2.70
2022-10-17T00:06:42.540Z,2.70
2022-10-17T00:09:12.839Z,2.60
2022-10-17T00:11:43.527Z,2.50
2022-10-17T00:14:14.090Z,2.70
2022-10-17T00:16:44.759Z,2.90
2022-10-17T00:19:15.377Z,2.60
2022-10-17T00:21:46.325Z,2.70
2022-10-17T00:24:17.242Z,2.70
2022-10-17T00:26:47.855Z,2.40
2022-10-17T00:29:18.496Z,2.40
2022-10-17T00:31:49.840Z,2.20
2022-10-17T00:34:20.210Z,2.60
2022-10-17T00:36:51.105Z,2.80
2022-10-17T00:39:21.797Z,2.50
2022-10-17T00:41:52.139Z,2.50
2022-10-17T00:44:57.676Z,2.40
2022-10-17T00:47:29.093Z,2.80
2022-10-17T00:50:03.254Z,2.50
2022-10-17T00:52:35.240Z,2.90
2022-10-17T00:55:11.928Z,2.60
2022-10-17T00:57:44.041Z,2.70
2022-10-17T01:00:17.472Z,2.50
2022-10-17T01:02:48.344Z,2.20
2022-10-17T01:05:20.321Z,2.40
2022-10-17T01:07:54.037Z,2.60
2022-10-17T01:10:26.274Z,2.60
2022-10-17T01:13:12.549Z,2.50
2022-10-17T01:15:53.789Z,2.20
2022-10-17T01:18:39.392Z,1.90
2022-10-17T01:21:27.897Z,2.30
2022-10-17T01:24:34.666Z,2.40
2022-10-17T01:27:37.072Z,2.00
2022-10-17T01:30:26.929Z,2.20
2022-10-17T01:33:00.124Z,2.40
2022-10-17T01:35:38.420Z,2.30
2022-10-17T01:38:12.710Z,2.20
2022-10-17T01:40:50.151Z,2.50
2022-10-17T01:43:25.602Z,2.90
2022-10-17T01:46:00.714Z,2.80
2022-10-17T01:48:36.382Z,2.80
2022-10-17T01:51:13.762Z,2.80
2022-10-17T01:53:50.992Z,2.50
2022-10-17T01:56:26.032Z,2.40
2022-10-17T01:59:01.854Z,2.60
2022-10-17T02:01:33.580Z,2.40
2022-10-17T02:04:06.832Z,2.20
2022-10-17T02:06:39.360Z,2.80
2022-10-17T02:09:22.107Z,2.80
2022-10-17T02:12:09.604Z,2.90
2022-10-17T02:14:55.607Z,2.60
2022-10-17T02:17:38.583Z,2.50
2022-10-17T02:20:17.761Z,2.40
2022-10-17T02:22:53.326Z,2.40
2022-10-17T02:25:37.050Z,2.40
2022-10-17T02:28:18.047Z,2.60
2022-10-17T02:30:53.015Z,2.80
2022-10-17T02:33:29.552Z,2.70
2022-10-17T02:36:03.129Z,2.40
2022-10-17T02:38:35.619Z,2.60
2022-10-17T02:41:07.275Z,2.70
2022-10-17T02:43:40.347Z,2.30
2022-10-17T02:46:11.285Z,2.40
2022-10-17T02:48:48.689Z,2.60
2022-10-17T02:51:28.966Z,2.30
2022-10-17T02:54:08.670Z,2.50
2022-10-17T02:56:42.724Z,2.20
2022-10-17T02:59:18.846Z,2.40
2022-10-17T03:01:51.580Z,2.70
2022-10-17T03:04:22.372Z,2.40
2022-10-17T03:06:53.151Z,2.60
2022-10-17T03:09:24.408Z,2.70
2022-10-17T03:11:54.793Z,2.70
2022-10-17T03:14:25.707Z,2.40
2022-10-17T03:16:56.347Z,2.80
2022-10-17T03:19:26.822Z,2.30
2022-10-17T03:21:57.919Z,2.80
2022-10-17T03:24:29.270Z,2.60
2022-10-17T03:27:00.237Z,2.40
2022-10-17T03:29:31.257Z,2.40
2022-10-17T03:32:02.004Z,2.60
2022-10-17T03:34:32.633Z,2.40
2022-10-17T03:37:03.293Z,2.20
2022-10-17T03:39:34.113Z,2.50
2022-10-17T03:42:05.452Z,2.90
2022-10-17T03:44:35.769Z,2.60
2022-10-17T03:47:09.207Z,2.50
2022-10-17T03:49:42.606Z,2.40
2022-10-17T03:52:15.088Z,2.60
2022-10-17T03:54:45.583Z,2.60
2022-10-17T03:57:16.310Z,2.70
2022-10-17T03:59:47.603Z,2.40
2022-10-17T04:02:18.539Z,2.90
2022-10-17T04:04:48.932Z,2.70
2022-10-17T04:07:19.983Z,2.20
2022-10-17T04:09:50.361Z,2.60
2022-10-17T04:12:20.733Z,2.80
2022-10-17T04:14:51.095Z,2.50
2022-10-17T04:17:21.536Z,2.40
2022-10-17T04:19:53.292Z,2.50
2022-10-17T04:22:23.670Z,2.50
2022-10-17T04:24:53.997Z,5.50
2022-10-17T04:27:24.587Z,9.30
2022-10-17T04:29:55.137Z,9.00
2022-10-17T04:32:25.970Z,6.40
2022-10-17T04:34:56.492Z,4.60
2022-10-17T04:37:26.959Z,5.70
2022-10-17T04:39:57.684Z,4.20
2022-10-17T04:42:29.991Z,3.20
2022-10-17T04:45:01.155Z,2.80
2022-10-17T04:47:31.762Z,2.40
2022-10-17T04:50:02.382Z,2.50
2022-10-17T04:52:33.381Z,2.30
2022-10-17T04:55:04.387Z,2.70
2022-10-17T04:57:37.483Z,3.10
2022-10-17T05:02:45.578Z,3.00
2022-10-17T05:05:16.324Z,2.50
2022-10-17T05:07:47.282Z,2.20
2022-10-17T05:10:18.230Z,2.20
2022-10-17T05:12:49.319Z,2.30
2022-10-17T05:15:20.025Z,2.70
2022-10-17T05:17:50.655Z,2.30
2022-10-17T05:20:21.464Z,2.20
2022-10-17T05:22:52.428Z,2.20
2022-10-17T05:25:22.935Z,2.40
2022-10-17T05:27:53.292Z,2.40
2022-10-17T05:30:23.948Z,2.90
2022-10-17T05:32:56.480Z,2.90
2022-10-17T05:35:27.227Z,3.10
2022-10-17T05:37:57.633Z,3.00
2022-10-17T05:40:28.322Z,3.10
2022-10-17T05:42:59.129Z,3.00
2022-10-17T05:45:30.030Z,2.90
2022-10-17T05:48:00.949Z,2.90
2022-10-17T05:50:31.669Z,2.80
2022-10-17T05:53:02.953Z,2.70
2022-10-17T05:55:33.973Z,2.80
2022-10-17T05:58:04.677Z,2.70
2022-10-17T06:00:36.022Z,2.70
2022-10-17T06:03:06.927Z,3.30
2022-10-17T06:05:39.054Z,3.50
2022-10-17T06:08:09.742Z,3.80
2022-10-17T06:10:40.926Z,3.40
2022-10-17T06:13:11.605Z,3.80
2022-10-17T06:15:42.896Z,3.10
2022-10-17T06:18:13.352Z,2.70
2022-10-17T06:20:46.120Z,3.00
2022-10-17T06:23:17.001Z,2.90
2022-10-17T06:25:47.318Z,3.30
2022-10-17T06:28:17.773Z,3.10
2022-10-17T06:30:48.424Z,2.90
2022-10-17T06:33:20.853Z,3.00
2022-10-17T06:35:55.364Z,3.10
2022-10-17T06:38:26.119Z,3.60
2022-10-17T06:40:57.854Z,3.30
2022-10-17T06:43:29.878Z,4.00
2022-10-17T06:46:00.277Z,3.40
2022-10-17T06:48:30.666Z,2.90
2022-10-17T06:51:04.496Z,3.00
2022-10-17T06:53:36.295Z,3.20
2022-10-17T06:56:08.209Z,2.90
2022-10-17T06:58:40.583Z,3.10
2022-10-17T07:01:12.979Z,3.00
2022-10-17T07:03:43.697Z,3.10
2022-10-17T07:06:14.030Z,3.30
2022-10-17T07:08:46.983Z,3.30
2022-10-17T07:11:19.561Z,2.90
2022-10-17T07:13:50.636Z,3.50
2022-10-17T07:16:21.336Z,3.20
2022-10-17T07:18:54.342Z,2.90
2022-10-17T07:21:25.248Z,3.50
2022-10-17T07:23:55.646Z,3.00
2022-10-17T07:26:26.305Z,3.10
2022-10-17T07:28:57.605Z,3.00
2022-10-17T07:31:28.152Z,3.20
2022-10-17T07:34:00.177Z,3.50
2022-10-17T07:36:30.561Z,3.50
2022-10-17T07:39:00.901Z,3.90
2022-10-17T07:41:31.251Z,3.20
2022-10-17T07:44:01.655Z,3.20
2022-10-17T07:46:32.198Z,3.40
2022-10-17T07:49:02.629Z,3.00
2022-10-17T07:51:33.610Z,3.20
2022-10-17T07:54:05.735Z,3.00
2022-10-17T07:56:36.221Z,3.10
2022-10-17T07:59:09.197Z,2.90
2022-10-17T08:01:40.007Z,3.10
2022-10-17T08:04:10.731Z,3.40
2022-10-17T08:06:41.185Z,3.30
2022-10-17T08:09:11.618Z,3.50
2022-10-17T08:11:43.946Z,3.50
2022-10-17T08:14:16.843Z,3.50
2022-10-17T08:16:47.183Z,3.30
2022-10-17T08:19:17.900Z,2.70
2022-10-17T08:21:50.046Z,3.30
2022-10-17T08:24:20.836Z,2.80
2022-10-17T08:26:53.366Z,3.10
2022-10-17T08:29:23.993Z,2.80
2022-10-17T08:31:58.673Z,3.30
2022-10-17T08:34:31.933Z,3.10
2022-10-17T08:37:02.351Z,3.10
2022-10-17T08:39:32.863Z,2.80
2022-10-17T08:42:19.281Z,3.10
2022-10-17T08:44:58.377Z,2.70
2022-10-17T08:47:37.217Z,3.10
2022-10-17T08:50:13.593Z,2.60
2022-10-17T08:52:47.988Z,2.70
2022-10-17T08:55:29.621Z,2.80
2022-10-17T08:58:00.482Z,2.90
2022-10-17T09:00:33.338Z,2.70
2022-10-17T09:03:17.776Z,2.90
2022-10-17T09:05:54.933Z,2.70
2022-10-17T09:08:37.287Z,2.70
2022-10-17T09:11:18.258Z,2.70
2022-10-17T09:14:01.984Z,2.80
2022-10-17T09:16:46.221Z,2.50
2022-10-17T09:19:22.438Z,2.60
2022-10-17T09:21:59.421Z,3.00
2022-10-17T09:24:41.662Z,2.70
2022-10-17T09:27:20.929Z,2.70
2022-10-17T09:29:56.482Z,2.50
2022-10-17T09:32:28.272Z,2.40
2022-10-17T09:34:58.935Z,2.30
2022-10-17T09:37:33.808Z,2.50
2022-10-17T09:40:07.530Z,2.50
2022-10-17T09:42:38.501Z,2.50
2022-10-17T09:45:24.695Z,2.20
2022-10-17T09:48:03.127Z,2.50
2022-10-17T09:50:35.326Z,2.50
2022-10-17T09:53:14.852Z,2.40
2022-10-17T09:55:48.237Z,2.60
2022-10-17T09:58:18.593Z,2.30
2022-10-17T10:00:49.900Z,2.30
2022-10-17T10:03:22.782Z,2.70
2022-10-17T10:06:14.945Z,2.50
2022-10-17T10:08:55.189Z,2.40
2022-10-17T10:11:45.510Z,2.40
2022-10-17T10:14:24.111Z,2.60
2022-10-17T10:16:55.852Z,2.40
2022-10-17T10:19:32.188Z,2.50
2022-10-17T10:22:05.021Z,2.50
2022-10-17T10:24:35.884Z,2.30
2022-10-17T10:27:12.039Z,2.30
2022-10-17T10:29:44.995Z,2.50
2022-10-17T10:32:23.337Z,2.60
2022-10-17T10:34:56.829Z,2.40
2022-10-17T10:37:32.803Z,2.60
2022-10-17T10:40:05.637Z,2.30
2022-10-17T10:42:39.627Z,2.60
2022-10-17T10:45:35.873Z,2.20
2022-10-17T10:48:22.490Z,2.60
2022-10-17T10:50:57.232Z,2.60
2022-10-17T10:53:40.677Z,2.40
2022-10-17T10:56:18.153Z,2.30
2022-10-17T11:01:31.857Z,2.70
2022-10-17T11:04:18.494Z,2.30
2022-10-17T11:06:52.472Z,2.80
2022-10-17T11:09:43.845Z,2.30
2022-10-17T11:12:21.150Z,2.50
2022-10-17T11:14:57.210Z,2.20
2022-10-17T11:17:36.081Z,2.00
2022-10-17T11:20:23.036Z,2.20
2022-10-17T11:22:59.821Z,2.30
2022-10-17T11:25:37.646Z,2.50
2022-10-17T11:28:15.856Z,2.60
2022-10-17T11:30:51.597Z,2.70
2022-10-17T11:33:29.969Z,2.20
2022-10-17T11:36:06.799Z,2.20
2022-10-17T11:38:46.894Z,2.60
2022-10-17T11:41:23.369Z,2.10
2022-10-17T11:43:58.309Z,2.20
2022-10-17T11:46:29.703Z,2.20
2022-10-17T11:49:07.561Z,2.50
2022-10-17T11:52:03.155Z,2.30
2022-10-17T11:54:39.187Z,2.20
2022-10-17T11:57:36.065Z,2.00
2022-10-17T12:00:22.427Z,2.10
2022-10-17T12:03:05.583Z,2.00
2022-10-17T12:05:42.789Z,2.10
2022-10-17T12:08:19.493Z,2.30
2022-10-17T12:10:59.351Z,2.40
2022-10-17T12:13:53.252Z,2.60
2022-10-17T12:16:52.350Z,2.30
2022-10-17T12:19:28.666Z,2.30
2022-10-17T12:22:01.761Z,2.10
2022-10-17T12:24:38.149Z,2.00
2022-10-17T12:27:45.929Z,2.50
2022-10-17T12:30:22.335Z,2.10
2022-10-17T12:33:07.514Z,2.10
2022-10-17T12:35:40.274Z,2.30
2022-10-17T12:38:25.099Z,2.20
2022-10-17T12:41:11.793Z,2.40
2022-10-17T12:46:51.017Z,2.10
2022-10-17T12:49:41.866Z,2.10
2022-10-17T12:52:49.369Z,1.90
2022-10-17T12:55:21.243Z,1.80
2022-10-17T12:57:56.718Z,2.30
2022-10-17T13:00:34.777Z,2.10
2022-10-17T13:03:18.393Z,2.10
2022-10-17T13:05:52.409Z,2.20
2022-10-17T13:08:26.674Z,2.10
2022-10-17T13:10:58.241Z,2.20
2022-10-17T13:13:48.774Z,2.00
2022-10-17T13:16:32.833Z,2.00
2022-10-17T13:19:05.171Z,1.90
2022-10-17T13:21:35.536Z,2.10
2022-10-17T13:24:22.829Z,2.40
2022-10-17T13:26:53.230Z,2.40
2022-10-17T13:29:25.678Z,2.00
2022-10-17T13:32:01.198Z,2.30
2022-10-17T13:34:32.480Z,2.20
2022-10-17T13:37:05.548Z,2.00
2022-10-17T13:39:58.139Z,2.10
2022-10-17T13:42:33.187Z,2.00
2022-10-17T13:45:04.836Z,1.90
2022-10-17T13:47:40.741Z,2.10
2022-10-17T13:50:43.121Z,2.30
2022-10-17T13:53:20.807Z,2.10
2022-10-17T13:56:15.689Z,2.10
2022-10-17T13:58:48.985Z,2.00
2022-10-17T14:01:20.647Z,2.20
2022-10-17T14:04:02.137Z,2.20
2022-10-17T14:06:47.666Z,2.30
2022-10-17T14:09:25.443Z,2.20
2022-10-17T14:12:05.066Z,2.30
2022-10-17T14:14:58.112Z,2.40
2022-10-17T14:17:29.244Z,2.40
2022-10-17T14:23:20.978Z,2.70
2022-10-17T14:25:44.302Z,2.20
2022-10-17T14:28:18.475Z,2.20
2022-10-17T14:30:56.868Z,2.20
2022-10-17T14:33:30.315Z,2.00
2022-10-17T14:36:03.604Z,2.10
2022-10-17T14:38:35.967Z,2.40
2022-10-17T14:44:08.061Z,2.60
2022-10-17T14:46:49.582Z,2.50
2022-10-17T14:49:26.231Z,2.20
2022-10-17T14:52:29.664Z,2.60
2022-10-17T14:55:02.217Z,2.20
2022-10-17T14:57:44.735Z,2.20
2022-10-17T15:00:18.456Z,2.30
2022-10-17T15:02:50.166Z,2.20
2022-10-17T15:05:23.032Z,2.30
2022-10-17T15:07:54.696Z,2.50
2022-10-17T15:10:33.702Z,2.40
2022-10-17T15:13:26.594Z,2.20
2022-10-17T15:15:55.088Z,2.60
2022-10-17T15:18:25.540Z,2.20
2022-10-17T15:21:04.902Z,2.40
2022-10-17T15:23:37.426Z,2.60
2022-10-17T15:26:14.101Z,2.70
2022-10-17T15:28:45.542Z,2.60
2022-10-17T15:31:18.719Z,2.90
2022-10-17T15:33:50.377Z,2.40
2022-10-17T15:36:27.546Z,2.60
2022-10-17T15:39:00.032Z,2.60
2022-10-17T15:41:32.238Z,2.50
2022-10-17T15:44:02.907Z,2.30
2022-10-17T15:46:35.960Z,2.50
2022-10-17T15:49:08.547Z,2.90
2022-10-17T15:51:38.954Z,2.80
2022-10-17T15:54:09.757Z,2.50
2022-10-17T15:56:42.346Z,2.50
2022-10-17T15:59:17.914Z,2.10
2022-10-17T16:01:49.087Z,2.80
2022-10-17T16:04:19.795Z,2.30
2022-10-17T16:06:50.068Z,2.60
2022-10-17T16:09:20.356Z,2.70
2022-10-17T16:11:50.695Z,2.50
2022-10-17T16:14:21.365Z,2.70
2022-10-17T16:16:52.077Z,2.60
2022-10-17T16:19:23.697Z,2.40
2022-10-17T16:21:56.272Z,2.40
2022-10-17T16:24:28.321Z,2.50
2022-10-17T16:26:59.588Z,2.70
2022-10-17T16:29:29.954Z,2.80
2022-10-17T16:32:00.515Z,2.80
2022-10-17T16:34:32.475Z,2.70
2022-10-17T16:37:03.738Z,2.90
2022-10-17T16:39:34.815Z,2.70
2022-10-17T16:42:05.614Z,2.50
2022-10-17T16:44:36.001Z,3.00
2022-10-17T16:47:06.331Z,2.50
2022-10-17T16:49:40.319Z,2.40
2022-10-17T16:52:14.094Z,3.00
2022-10-17T16:54:45.001Z,2.60
2022-10-17T16:57:15.836Z,2.90
2022-10-17T16:59:48.156Z,3.00
2022-10-17T17:02:21.283Z,2.60
2022-10-17T17:04:52.368Z,2.80
2022-10-17T17:07:24.392Z,2.60
2022-10-17T17:09:55.697Z,2.80
2022-10-17T17:12:26.531Z,3.00
2022-10-17T17:14:57.269Z,3.00
2022-10-17T17:17:36.817Z,3.00
2022-10-17T17:20:18.466Z,2.80
2022-10-17T17:22:50.836Z,2.80
2022-10-17T17:25:22.315Z,3.00
2022-10-17T17:27:52.752Z,2.80
2022-10-17T17:30:23.353Z,3.00
2022-10-17T17:32:54.317Z,3.10
2022-10-17T17:35:25.361Z,3.40
2022-10-17T17:37:55.905Z,3.00
2022-10-17T17:40:26.335Z,3.10
2022-10-17T17:42:57.473Z,2.80
2022-10-17T17:45:28.602Z,3.00
2022-10-17T17:47:59.046Z,2.70
2022-10-17T17:50:29.973Z,4.20
2022-10-17T17:53:01.523Z,3.30
2022-10-17T17:55:32.461Z,4.90
2022-10-17T17:58:04.511Z,4.20
2022-10-17T18:00:35.752Z,2.80
2022-10-17T18:03:07.536Z,3.00
2022-10-17T18:05:41.440Z,2.90
2022-10-17T18:08:12.715Z,2.90
2022-10-17T18:10:47.924Z,2.90
2022-10-17T18:13:19.134Z,3.10
2022-10-17T18:15:51.963Z,3.30
2022-10-17T18:18:23.829Z,2.70
2022-10-17T18:20:55.370Z,2.90
2022-10-17T18:23:26.829Z,3.10
2022-10-17T18:26:01.129Z,3.10
2022-10-17T18:28:34.177Z,3.40
2022-10-17T18:31:08.937Z,2.90
2022-10-17T18:33:39.922Z,3.10
2022-10-17T18:36:12.808Z,3.20
2022-10-17T18:38:44.515Z,2.80
2022-10-17T18:41:16.258Z,2.90
2022-10-17T18:43:48.260Z,3.10
2022-10-17T18:46:20.201Z,3.30
2022-10-17T18:48:51.747Z,3.30
2022-10-17T18:51:24.101Z,3.10
2022-10-17T18:53:58.569Z,3.60
2022-10-17T18:56:30.123Z,3.00
2022-10-17T18:59:01.376Z,3.70
2022-10-17T19:01:32.175Z,3.50
2022-10-17T19:04:03.027Z,3.20
2022-10-17T19:06:34.188Z,3.00
2022-10-17T19:09:07.272Z,4.30
2022-10-17T19:11:39.004Z,6.00
2022-10-17T19:14:13.313Z,3.60
2022-10-17T19:16:45.866Z,3.20
2022-10-17T19:19:19.222Z,3.10
2022-10-17T19:21:49.945Z,3.30
2022-10-17T19:24:21.977Z,3.50
2022-10-17T19:26:54.969Z,3.40
2022-10-17T19:29:28.147Z,3.40
2022-10-17T19:31:58.469Z,3.20
2022-10-17T19:34:29.857Z,3.80
2022-10-17T19:37:00.755Z,2.90
2022-10-17T19:39:32.941Z,3.90
2022-10-17T19:42:06.740Z,3.50
2022-10-17T19:44:38.108Z,4.20
2022-10-17T19:47:09.125Z,3.80
2022-10-17T19:49:39.710Z,3.80
2022-10-17T19:52:10.356Z,4.10
2022-10-17T19:54:41.523Z,4.60
2022-10-17T19:57:12.243Z,4.40
2022-10-17T19:59:43.582Z,4.40
2022-10-17T20:02:15.276Z,3.80
2022-10-17T20:04:54.535Z,4.40
2022-10-17T20:07:36.652Z,3.90
2022-10-17T20:10:08.735Z,4.60
2022-10-17T20:12:39.421Z,4.10
2022-10-17T20:15:10.988Z,4.10
2022-10-17T20:17:41.803Z,3.70
2022-10-17T20:20:13.335Z,4.00
2022-10-17T20:22:44.084Z,4.20
2022-10-17T20:25:15.366Z,3.80
2022-10-17T20:27:46.578Z,4.00
2022-10-17T20:30:17.584Z,3.60
2022-10-17T20:32:48.254Z,3.80
2022-10-17T20:35:19.059Z,4.60
2022-10-17T20:37:49.926Z,6.00
2022-10-17T20:40:34.763Z,5.00
2022-10-17T20:43:07.495Z,4.70
2022-10-17T20:45:51.471Z,4.30
2022-10-17T20:48:23.098Z,4.60
2022-10-17T20:50:54.261Z,4.70
2022-10-17T20:53:36.717Z,4.60
2022-10-17T20:56:11.537Z,4.20
2022-10-17T20:58:42.153Z,4.60
2022-10-17T21:01:13.906Z,5.00
2022-10-17T21:03:46.506Z,4.70
2022-10-17T21:06:18.898Z,4.60
2022-10-17T21:08:50.876Z,4.60
2022-10-17T21:11:23.202Z,4.50
2022-10-17T21:13:59.299Z,4.50
2022-10-17T21:16:31.348Z,4.60
2022-10-17T21:19:02.108Z,4.90
2022-10-17T21:21:34.444Z,4.80
2022-10-17T21:24:07.792Z,5.10
2022-10-17T21:26:39.413Z,5.90
2022-10-17T21:29:11.194Z,5.30
2022-10-17T21:31:43.456Z,5.30
2022-10-17T21:34:17.585Z,4.70
2022-10-17T21:36:48.714Z,4.50
2022-10-17T21:39:20.165Z,4.90
2022-10-17T21:41:50.930Z,4.70
2022-10-17T21:44:23.199Z,4.80
2022-10-17T21:46:55.440Z,4.60
2022-10-17T21:49:27.772Z,4.90
2022-10-17T21:51:58.329Z,5.10
2022-10-17T21:54:28.963Z,5.00
2022-10-17T21:56:59.594Z,4.60
2022-10-17T21:59:31.890Z,4.60
2022-10-17T22:02:03.105Z,4.90
2022-10-17T22:04:33.982Z,4.80
2022-10-17T22:07:04.655Z,4.60
2022-10-17T22:09:35.019Z,4.80
2022-10-17T22:12:05.637Z,4.50
2022-10-17T22:14:36.601Z,5.20
2022-10-17T22:17:07.298Z,4.60
2022-10-17T22:19:38.459Z,4.90
2022-10-17T22:22:09.394Z,4.40
2022-10-17T22:24:40.640Z,5.30
2022-10-17T22:27:11.256Z,4.90
2022-10-17T22:29:42.201Z,5.60
2022-10-17T22:32:12.826Z,5.40
2022-10-17T22:34:43.438Z,6.00
2022-10-17T22:37:13.790Z,5.70
2022-10-17T22:39:44.763Z,5.60
2022-10-17T22:42:15.817Z,5.70
2022-10-17T22:44:46.647Z,5.40
2022-10-17T22:47:17.309Z,5.70
2022-10-17T22:49:47.999Z,5.90
2022-10-17T22:52:18.997Z,5.90
2022-10-17T22:54:50.171Z,5.50
2022-10-17T22:57:20.496Z,5.50
2022-10-17T22:59:51.109Z,5.70
2022-10-17T23:02:21.469Z,5.60
2022-10-17T23:04:52.149Z,6.00
2022-10-17T23:07:22.807Z,5.50
2022-10-17T23:09:53.606Z,5.50
2022-10-17T23:12:24.590Z,5.70
2022-10-17T23:14:55.514Z,5.70
2022-10-17T23:17:26.560Z,5.40
2022-10-17T23:19:57.794Z,5.60
2022-10-17T23:22:28.591Z,6.30
2022-10-17T23:24:59.352Z,5.00
2022-10-17T23:30:05.971Z,5.60
2022-10-17T23:32:36.313Z,5.90
2022-10-17T23:35:07.757Z,6.30
2022-10-17T23:37:39.282Z,6.30
2022-10-17T23:40:11.921Z,5.60
2022-10-17T23:42:42.305Z,5.80
2022-10-17T23:45:13.983Z,5.10
2022-10-17T23:47:44.378Z,5.40
2022-10-17T23:50:15.132Z,5.80
2022-10-17T23:52:45.490Z,5.90
2022-10-17T23:55:16.063Z,5.20
2022-10-17T23:57:46.376Z,6.00
